sensor_id;sensor_type;location;lat;lon;timestamp;P1;durP1;ratioP1;P2;durP2;ratioP2
9370;SDS011;4725;48.384;8.984;2023-06-22T00:01:00;8.55;;;6.45;;
9370;SDS011;4725;48.384;8.984;2023-06-22T00:03:26;10.60;;;7.00;;
9370;SDS011;4725;48.384;8.984;2023-06-22T00:05:53;11.02;;;6.10;;
9370;SDS011;4725;48.384;8.984;2023-06-22T00:08:21;7.30;;;6.10;;
9370;SDS011;4725;48.384;8.984;2023-06-22T00:10:49;8.30;;;5.85;;
9370;SDS011;4725;48.384;8.984;2023-06-22T00:13:16;8.88;;;6.80;;
9370;SDS011;4725;48.384;8.984;2023-06-22T00:15:44;8.85;;;5.97;;
9370;SDS011;4725;48.384;8.984;2023-06-22T00:18:11;9.82;;;6.57;;
9370;SDS011;4725;48.384;8.984;2023-06-22T00:20:38;10.82;;;7.78;;
9370;SDS011;4725;48.384;8.984;2023-06-22T00:23:06;10.95;;;6.45;;
9370;SDS011;4725;48.384;8.984;2023-06-22T00:25:34;11.95;;;6.50;;
9370;SDS011;4725;48.384;8.984;2023-06-22T00:28:02;8.85;;;6.45;;
9370;SDS011;4725;48.384;8.984;2023-06-22T00:30:31;10.95;;;6.40;;
9370;SDS011;4725;48.384;8.984;2023-06-22T00:32:58;8.95;;;6.38;;
9370;SDS011;4725;48.384;8.984;2023-06-22T00:35:25;11.88;;;6.47;;
9370;SDS011;4725;48.384;8.984;2023-06-22T00:37:54;6.90;;;5.63;;
9370;SDS011;4725;48.384;8.984;2023-06-22T00:40:25;7.45;;;6.25;;
9370;SDS011;4725;48.384;8.984;2023-06-22T00:42:53;6.53;;;5.63;;
9370;SDS011;4725;48.384;8.984;2023-06-22T00:45:21;11.40;;;6.45;;
9370;SDS011;4725;48.384;8.984;2023-06-22T00:47:49;8.82;;;6.22;;
9370;SDS011;4725;48.384;8.984;2023-06-22T00:50:18;14.07;;;7.97;;
9370;SDS011;4725;48.384;8.984;2023-06-22T00:52:48;8.73;;;7.82;;
9370;SDS011;4725;48.384;8.984;2023-06-22T00:55:17;8.40;;;7.50;;
9370;SDS011;4725;48.384;8.984;2023-06-22T00:57:45;8.68;;;7.57;;
9370;SDS011;4725;48.384;8.984;2023-06-22T01:00:13;9.05;;;7.97;;
9370;SDS011;4725;48.384;8.984;2023-06-22T01:02:46;9.93;;;8.82;;
9370;SDS011;4725;48.384;8.984;2023-06-22T01:05:17;12.70;;;10.73;;
9370;SDS011;4725;48.384;8.984;2023-06-22T01:07:46;10.68;;;9.57;;
9370;SDS011;4725;48.384;8.984;2023-06-22T01:10:25;11.70;;;10.52;;
9370;SDS011;4725;48.384;8.984;2023-06-22T01:12:58;16.63;;;12.27;;
9370;SDS011;4725;48.384;8.984;2023-06-22T01:15:28;11.48;;;8.48;;
9370;SDS011;4725;48.384;8.984;2023-06-22T01:18:00;16.90;;;13.77;;
9370;SDS011;4725;48.384;8.984;2023-06-22T01:20:30;17.10;;;11.88;;
9370;SDS011;4725;48.384;8.984;2023-06-22T01:23:07;11.95;;;9.95;;
9370;SDS011;4725;48.384;8.984;2023-06-22T01:25:43;12.98;;;9.02;;
9370;SDS011;4725;48.384;8.984;2023-06-22T01:28:20;9.75;;;8.55;;
9370;SDS011;4725;48.384;8.984;2023-06-22T01:30:52;13.40;;;9.10;;
9370;SDS011;4725;48.384;8.984;2023-06-22T01:33:30;10.52;;;8.30;;
9370;SDS011;4725;48.384;8.984;2023-06-22T01:36:01;10.68;;;7.85;;
9370;SDS011;4725;48.384;8.984;2023-06-22T01:38:28;9.15;;;7.25;;
9370;SDS011;4725;48.384;8.984;2023-06-22T01:40:56;8.77;;;6.90;;
9370;SDS011;4725;48.384;8.984;2023-06-22T01:43:24;11.88;;;7.82;;
9370;SDS011;4725;48.384;8.984;2023-06-22T01:45:54;10.38;;;9.38;;
9370;SDS011;4725;48.384;8.984;2023-06-22T01:48:22;11.25;;;7.47;;
9370;SDS011;4725;48.384;8.984;2023-06-22T01:50:51;12.23;;;7.78;;
9370;SDS011;4725;48.384;8.984;2023-06-22T01:53:20;8.35;;;7.25;;
9370;SDS011;4725;48.384;8.984;2023-06-22T01:55:47;8.85;;;6.80;;
9370;SDS011;4725;48.384;8.984;2023-06-22T01:58:14;11.82;;;7.72;;
9370;SDS011;4725;48.384;8.984;2023-06-22T02:00:43;11.82;;;7.57;;
9370;SDS011;4725;48.384;8.984;2023-06-22T02:03:19;10.27;;;8.52;;
9370;SDS011;4725;48.384;8.984;2023-06-22T02:05:49;9.45;;;7.85;;
9370;SDS011;4725;48.384;8.984;2023-06-22T02:08:19;11.85;;;8.90;;
9370;SDS011;4725;48.384;8.984;2023-06-22T02:10:48;10.70;;;9.50;;
9370;SDS011;4725;48.384;8.984;2023-06-22T02:13:16;12.05;;;8.93;;
9370;SDS011;4725;48.384;8.984;2023-06-22T02:15:44;14.88;;;9.68;;
9370;SDS011;4725;48.384;8.984;2023-06-22T02:18:12;9.27;;;7.22;;
9370;SDS011;4725;48.384;8.984;2023-06-22T02:20:40;15.00;;;9.95;;
9370;SDS011;4725;48.384;8.984;2023-06-22T02:23:07;13.60;;;10.13;;
9370;SDS011;4725;48.384;8.984;2023-06-22T02:25:35;14.05;;;11.30;;
9370;SDS011;4725;48.384;8.984;2023-06-22T02:28:02;10.65;;;8.02;;
9370;SDS011;4725;48.384;8.984;2023-06-22T02:30:29;16.00;;;11.70;;
9370;SDS011;4725;48.384;8.984;2023-06-22T02:32:56;15.75;;;12.20;;
9370;SDS011;4725;48.384;8.984;2023-06-22T02:35:24;14.27;;;11.80;;
9370;SDS011;4725;48.384;8.984;2023-06-22T02:37:53;13.60;;;10.63;;
9370;SDS011;4725;48.384;8.984;2023-06-22T02:40:20;13.95;;;10.65;;
9370;SDS011;4725;48.384;8.984;2023-06-22T02:42:47;11.63;;;7.72;;
9370;SDS011;4725;48.384;8.984;2023-06-22T02:45:14;11.52;;;9.45;;
9370;SDS011;4725;48.384;8.984;2023-06-22T02:47:41;13.45;;;8.82;;
9370;SDS011;4725;48.384;8.984;2023-06-22T02:50:08;16.60;;;9.68;;
9370;SDS011;4725;48.384;8.984;2023-06-22T02:52:35;9.55;;;7.97;;
9370;SDS011;4725;48.384;8.984;2023-06-22T02:55:05;8.48;;;7.68;;
9370;SDS011;4725;48.384;8.984;2023-06-22T02:57:33;8.55;;;6.93;;
9370;SDS011;4725;48.384;8.984;2023-06-22T03:00:01;12.13;;;9.25;;
9370;SDS011;4725;48.384;8.984;2023-06-22T03:02:41;9.77;;;8.27;;
9370;SDS011;4725;48.384;8.984;2023-06-22T03:05:09;11.05;;;8.80;;
9370;SDS011;4725;48.384;8.984;2023-06-22T03:07:38;12.52;;;8.82;;
9370;SDS011;4725;48.384;8.984;2023-06-22T03:10:07;11.00;;;7.63;;
9370;SDS011;4725;48.384;8.984;2023-06-22T03:12:35;10.77;;;9.50;;
9370;SDS011;4725;48.384;8.984;2023-06-22T03:15:03;10.10;;;8.50;;
9370;SDS011;4725;48.384;8.984;2023-06-22T03:17:30;11.23;;;9.10;;
9370;SDS011;4725;48.384;8.984;2023-06-22T03:19:57;12.88;;;8.38;;
9370;SDS011;4725;48.384;8.984;2023-06-22T03:22:24;9.25;;;7.53;;
9370;SDS011;4725;48.384;8.984;2023-06-22T03:24:51;10.95;;;9.80;;
9370;SDS011;4725;48.384;8.984;2023-06-22T03:27:19;13.68;;;9.45;;
9370;SDS011;4725;48.384;8.984;2023-06-22T03:29:46;11.45;;;8.57;;
9370;SDS011;4725;48.384;8.984;2023-06-22T03:32:13;10.38;;;8.70;;
9370;SDS011;4725;48.384;8.984;2023-06-22T03:34:40;14.10;;;10.52;;
9370;SDS011;4725;48.384;8.984;2023-06-22T03:37:12;15.77;;;10.63;;
9370;SDS011;4725;48.384;8.984;2023-06-22T03:39:39;17.08;;;13.00;;
9370;SDS011;4725;48.384;8.984;2023-06-22T03:42:06;12.18;;;10.90;;
9370;SDS011;4725;48.384;8.984;2023-06-22T03:44:35;14.55;;;11.27;;
9370;SDS011;4725;48.384;8.984;2023-06-22T03:47:02;14.93;;;9.15;;
9370;SDS011;4725;48.384;8.984;2023-06-22T03:49:31;12.80;;;10.15;;
9370;SDS011;4725;48.384;8.984;2023-06-22T03:51:59;16.52;;;12.75;;
9370;SDS011;4725;48.384;8.984;2023-06-22T03:54:25;14.98;;;10.98;;
9370;SDS011;4725;48.384;8.984;2023-06-22T03:56:52;10.80;;;9.45;;
9370;SDS011;4725;48.384;8.984;2023-06-22T03:59:19;11.20;;;9.77;;
9370;SDS011;4725;48.384;8.984;2023-06-22T04:01:48;10.68;;;9.68;;
9370;SDS011;4725;48.384;8.984;2023-06-22T04:04:15;11.90;;;9.52;;
9370;SDS011;4725;48.384;8.984;2023-06-22T04:06:42;17.15;;;13.13;;
9370;SDS011;4725;48.384;8.984;2023-06-22T04:09:09;14.23;;;10.32;;
9370;SDS011;4725;48.384;8.984;2023-06-22T04:11:36;15.00;;;11.23;;
9370;SDS011;4725;48.384;8.984;2023-06-22T04:14:03;13.93;;;10.77;;
9370;SDS011;4725;48.384;8.984;2023-06-22T04:16:30;12.10;;;10.38;;
9370;SDS011;4725;48.384;8.984;2023-06-22T04:18:58;18.40;;;13.05;;
9370;SDS011;4725;48.384;8.984;2023-06-22T04:21:25;12.20;;;9.75;;
9370;SDS011;4725;48.384;8.984;2023-06-22T04:23:52;16.95;;;10.88;;
9370;SDS011;4725;48.384;8.984;2023-06-22T04:26:18;12.63;;;9.07;;
9370;SDS011;4725;48.384;8.984;2023-06-22T04:28:46;10.82;;;9.50;;
9370;SDS011;4725;48.384;8.984;2023-06-22T04:31:16;13.90;;;9.63;;
9370;SDS011;4725;48.384;8.984;2023-06-22T04:33:44;14.02;;;10.98;;
9370;SDS011;4725;48.384;8.984;2023-06-22T04:36:12;15.35;;;13.55;;
9370;SDS011;4725;48.384;8.984;2023-06-22T04:38:40;17.42;;;13.68;;
9370;SDS011;4725;48.384;8.984;2023-06-22T04:41:07;13.05;;;11.30;;
9370;SDS011;4725;48.384;8.984;2023-06-22T04:43:48;15.15;;;12.77;;
9370;SDS011;4725;48.384;8.984;2023-06-22T04:46:19;22.67;;;18.02;;
9370;SDS011;4725;48.384;8.984;2023-06-22T04:48:46;17.88;;;14.10;;
9370;SDS011;4725;48.384;8.984;2023-06-22T04:51:14;15.68;;;12.68;;
9370;SDS011;4725;48.384;8.984;2023-06-22T04:53:41;19.17;;;13.15;;
9370;SDS011;4725;48.384;8.984;2023-06-22T04:56:08;14.80;;;11.60;;
9370;SDS011;4725;48.384;8.984;2023-06-22T04:58:35;13.98;;;12.52;;
9370;SDS011;4725;48.384;8.984;2023-06-22T05:01:01;14.70;;;13.05;;
9370;SDS011;4725;48.384;8.984;2023-06-22T05:03:29;15.63;;;11.48;;
9370;SDS011;4725;48.384;8.984;2023-06-22T05:05:55;16.33;;;12.60;;
9370;SDS011;4725;48.384;8.984;2023-06-22T05:08:24;15.88;;;11.02;;
9370;SDS011;4725;48.384;8.984;2023-06-22T05:10:53;13.85;;;11.13;;
9370;SDS011;4725;48.384;8.984;2023-06-22T05:13:20;15.77;;;11.48;;
9370;SDS011;4725;48.384;8.984;2023-06-22T05:15:51;15.30;;;10.43;;
9370;SDS011;4725;48.384;8.984;2023-06-22T05:18:18;13.98;;;10.60;;
9370;SDS011;4725;48.384;8.984;2023-06-22T05:20:49;13.25;;;11.95;;
9370;SDS011;4725;48.384;8.984;2023-06-22T05:23:16;17.05;;;10.30;;
9370;SDS011;4725;48.384;8.984;2023-06-22T05:25:45;11.57;;;10.00;;
9370;SDS011;4725;48.384;8.984;2023-06-22T05:28:12;11.90;;;9.32;;
9370;SDS011;4725;48.384;8.984;2023-06-22T05:30:39;12.90;;;10.02;;
9370;SDS011;4725;48.384;8.984;2023-06-22T05:33:05;11.15;;;9.98;;
9370;SDS011;4725;48.384;8.984;2023-06-22T05:35:32;17.27;;;10.18;;
9370;SDS011;4725;48.384;8.984;2023-06-22T05:37:59;12.80;;;9.88;;
9370;SDS011;4725;48.384;8.984;2023-06-22T05:40:26;13.35;;;10.02;;
9370;SDS011;4725;48.384;8.984;2023-06-22T05:42:54;11.02;;;9.57;;
9370;SDS011;4725;48.384;8.984;2023-06-22T05:45:21;11.43;;;9.75;;
9370;SDS011;4725;48.384;8.984;2023-06-22T05:47:48;16.02;;;10.88;;
9370;SDS011;4725;48.384;8.984;2023-06-22T05:50:15;16.45;;;10.82;;
9370;SDS011;4725;48.384;8.984;2023-06-22T05:52:41;14.40;;;10.15;;
9370;SDS011;4725;48.384;8.984;2023-06-22T05:55:08;14.55;;;10.63;;
9370;SDS011;4725;48.384;8.984;2023-06-22T05:57:35;11.75;;;9.98;;
9370;SDS011;4725;48.384;8.984;2023-06-22T06:00:04;11.13;;;9.93;;
9370;SDS011;4725;48.384;8.984;2023-06-22T06:02:35;12.13;;;10.82;;
9370;SDS011;4725;48.384;8.984;2023-06-22T06:05:08;12.07;;;8.55;;
9370;SDS011;4725;48.384;8.984;2023-06-22T06:07:36;13.82;;;8.95;;
9370;SDS011;4725;48.384;8.984;2023-06-22T06:10:03;12.65;;;9.02;;
9370;SDS011;4725;48.384;8.984;2023-06-22T06:12:31;12.25;;;9.05;;
9370;SDS011;4725;48.384;8.984;2023-06-22T06:14:58;14.07;;;8.00;;
9370;SDS011;4725;48.384;8.984;2023-06-22T06:17:26;11.82;;;8.40;;
9370;SDS011;4725;48.384;8.984;2023-06-22T06:19:53;9.93;;;7.47;;
9370;SDS011;4725;48.384;8.984;2023-06-22T06:22:20;19.25;;;8.23;;
9370;SDS011;4725;48.384;8.984;2023-06-22T06:24:48;9.55;;;7.95;;
9370;SDS011;4725;48.384;8.984;2023-06-22T06:27:15;10.90;;;8.45;;
9370;SDS011;4725;48.384;8.984;2023-06-22T06:29:44;9.00;;;7.97;;
9370;SDS011;4725;48.384;8.984;2023-06-22T06:32:13;13.57;;;10.00;;
9370;SDS011;4725;48.384;8.984;2023-06-22T06:34:41;9.82;;;8.25;;
9370;SDS011;4725;48.384;8.984;2023-06-22T06:37:08;10.40;;;7.93;;
9370;SDS011;4725;48.384;8.984;2023-06-22T06:39:35;9.63;;;7.05;;
9370;SDS011;4725;48.384;8.984;2023-06-22T06:42:02;12.40;;;7.70;;
9370;SDS011;4725;48.384;8.984;2023-06-22T06:44:30;11.88;;;8.30;;
9370;SDS011;4725;48.384;8.984;2023-06-22T06:46:57;9.73;;;7.75;;
9370;SDS011;4725;48.384;8.984;2023-06-22T06:49:24;8.82;;;7.43;;
9370;SDS011;4725;48.384;8.984;2023-06-22T06:51:53;10.02;;;7.55;;
9370;SDS011;4725;48.384;8.984;2023-06-22T06:54:20;9.02;;;7.95;;
9370;SDS011;4725;48.384;8.984;2023-06-22T06:56:47;8.75;;;7.38;;
9370;SDS011;4725;48.384;8.984;2023-06-22T06:59:15;10.52;;;7.78;;
9370;SDS011;4725;48.384;8.984;2023-06-22T07:01:42;12.77;;;7.80;;
9370;SDS011;4725;48.384;8.984;2023-06-22T07:04:09;8.23;;;6.22;;
9370;SDS011;4725;48.384;8.984;2023-06-22T07:06:36;13.07;;;7.60;;
9370;SDS011;4725;48.384;8.984;2023-06-22T07:09:05;11.13;;;7.47;;
9370;SDS011;4725;48.384;8.984;2023-06-22T07:11:32;12.35;;;6.72;;
9370;SDS011;4725;48.384;8.984;2023-06-22T07:14:00;8.95;;;6.70;;
9370;SDS011;4725;48.384;8.984;2023-06-22T07:16:27;9.68;;;6.75;;
9370;SDS011;4725;48.384;8.984;2023-06-22T07:18:55;10.52;;;7.25;;
9370;SDS011;4725;48.384;8.984;2023-06-22T07:21:21;9.82;;;7.22;;
9370;SDS011;4725;48.384;8.984;2023-06-22T07:23:48;10.23;;;6.88;;
9370;SDS011;4725;48.384;8.984;2023-06-22T07:26:17;15.23;;;8.02;;
9370;SDS011;4725;48.384;8.984;2023-06-22T07:28:43;8.65;;;6.95;;
9370;SDS011;4725;48.384;8.984;2023-06-22T07:31:10;7.80;;;6.75;;
9370;SDS011;4725;48.384;8.984;2023-06-22T07:33:37;10.98;;;7.40;;
9370;SDS011;4725;48.384;8.984;2023-06-22T07:36:04;8.80;;;6.90;;
9370;SDS011;4725;48.384;8.984;2023-06-22T07:38:33;10.85;;;6.70;;
9370;SDS011;4725;48.384;8.984;2023-06-22T07:41:00;15.02;;;7.85;;
9370;SDS011;4725;48.384;8.984;2023-06-22T07:43:28;13.63;;;6.68;;
9370;SDS011;4725;48.384;8.984;2023-06-22T07:45:58;7.28;;;5.97;;
9370;SDS011;4725;48.384;8.984;2023-06-22T07:48:25;10.02;;;6.80;;
9370;SDS011;4725;48.384;8.984;2023-06-22T07:50:52;7.32;;;6.43;;
9370;SDS011;4725;48.384;8.984;2023-06-22T07:53:20;12.90;;;6.45;;
9370;SDS011;4725;48.384;8.984;2023-06-22T07:55:48;12.32;;;6.97;;
9370;SDS011;4725;48.384;8.984;2023-06-22T07:58:15;11.15;;;6.18;;
9370;SDS011;4725;48.384;8.984;2023-06-22T08:00:45;10.57;;;6.60;;
9370;SDS011;4725;48.384;8.984;2023-06-22T08:03:13;9.77;;;6.57;;
9370;SDS011;4725;48.384;8.984;2023-06-22T08:05:40;10.75;;;6.10;;
9370;SDS011;4725;48.384;8.984;2023-06-22T08:08:07;8.85;;;5.75;;
9370;SDS011;4725;48.384;8.984;2023-06-22T08:10:34;11.38;;;5.90;;
9370;SDS011;4725;48.384;8.984;2023-06-22T08:13:01;11.70;;;6.30;;
9370;SDS011;4725;48.384;8.984;2023-06-22T08:15:28;9.88;;;5.75;;
9370;SDS011;4725;48.384;8.984;2023-06-22T08:17:56;11.80;;;5.55;;
9370;SDS011;4725;48.384;8.984;2023-06-22T08:20:24;9.98;;;5.68;;
9370;SDS011;4725;48.384;8.984;2023-06-22T08:22:50;8.75;;;6.25;;
9370;SDS011;4725;48.384;8.984;2023-06-22T08:25:19;12.38;;;5.78;;
9370;SDS011;4725;48.384;8.984;2023-06-22T08:27:47;10.52;;;5.95;;
9370;SDS011;4725;48.384;8.984;2023-06-22T08:30:15;8.18;;;6.10;;
9370;SDS011;4725;48.384;8.984;2023-06-22T08:32:42;11.50;;;6.03;;
9370;SDS011;4725;48.384;8.984;2023-06-22T08:35:10;10.15;;;5.78;;
9370;SDS011;4725;48.384;8.984;2023-06-22T08:37:37;12.18;;;6.03;;
9370;SDS011;4725;48.384;8.984;2023-06-22T08:40:06;9.18;;;6.20;;
9370;SDS011;4725;48.384;8.984;2023-06-22T08:42:34;6.45;;;5.55;;
9370;SDS011;4725;48.384;8.984;2023-06-22T08:45:01;13.10;;;6.38;;
9370;SDS011;4725;48.384;8.984;2023-06-22T08:47:29;6.60;;;5.82;;
9370;SDS011;4725;48.384;8.984;2023-06-22T08:49:56;13.60;;;6.70;;
9370;SDS011;4725;48.384;8.984;2023-06-22T08:52:24;6.10;;;5.47;;
9370;SDS011;4725;48.384;8.984;2023-06-22T08:54:51;8.50;;;5.90;;
9370;SDS011;4725;48.384;8.984;2023-06-22T08:57:18;11.07;;;6.53;;
9370;SDS011;4725;48.384;8.984;2023-06-22T08:59:45;9.30;;;6.05;;
9370;SDS011;4725;48.384;8.984;2023-06-22T09:02:12;8.45;;;6.03;;
9370;SDS011;4725;48.384;8.984;2023-06-22T09:04:39;10.57;;;6.20;;
9370;SDS011;4725;48.384;8.984;2023-06-22T09:07:06;11.05;;;5.80;;
9370;SDS011;4725;48.384;8.984;2023-06-22T09:09:34;11.85;;;6.20;;
9370;SDS011;4725;48.384;8.984;2023-06-22T09:12:02;11.13;;;6.03;;
9370;SDS011;4725;48.384;8.984;2023-06-22T09:14:29;8.98;;;5.57;;
9370;SDS011;4725;48.384;8.984;2023-06-22T09:16:56;9.38;;;6.15;;
9370;SDS011;4725;48.384;8.984;2023-06-22T09:19:23;11.20;;;6.18;;
9370;SDS011;4725;48.384;8.984;2023-06-22T09:21:50;7.93;;;6.10;;
9370;SDS011;4725;48.384;8.984;2023-06-22T09:24:17;7.72;;;5.85;;
9370;SDS011;4725;48.384;8.984;2023-06-22T09:26:45;8.82;;;6.10;;
9370;SDS011;4725;48.384;8.984;2023-06-22T09:29:12;11.25;;;6.10;;
9370;SDS011;4725;48.384;8.984;2023-06-22T09:31:39;12.70;;;6.25;;
9370;SDS011;4725;48.384;8.984;2023-06-22T09:34:06;15.15;;;6.07;;
9370;SDS011;4725;48.384;8.984;2023-06-22T09:36:32;9.68;;;6.70;;
9370;SDS011;4725;48.384;8.984;2023-06-22T09:39:00;11.20;;;5.68;;
9370;SDS011;4725;48.384;8.984;2023-06-22T09:41:31;9.63;;;6.15;;
9370;SDS011;4725;48.384;8.984;2023-06-22T09:43:59;10.90;;;5.93;;
9370;SDS011;4725;48.384;8.984;2023-06-22T09:46:26;12.70;;;6.50;;
9370;SDS011;4725;48.384;8.984;2023-06-22T09:48:53;15.43;;;6.00;;
9370;SDS011;4725;48.384;8.984;2023-06-22T09:51:20;11.40;;;5.70;;
9370;SDS011;4725;48.384;8.984;2023-06-22T09:53:48;12.90;;;5.93;;
9370;SDS011;4725;48.384;8.984;2023-06-22T09:56:15;9.70;;;5.78;;
9370;SDS011;4725;48.384;8.984;2023-06-22T09:58:43;11.43;;;5.85;;
9370;SDS011;4725;48.384;8.984;2023-06-22T10:01:12;8.55;;;5.28;;
9370;SDS011;4725;48.384;8.984;2023-06-22T10:03:40;18.63;;;5.90;;
9370;SDS011;4725;48.384;8.984;2023-06-22T10:06:07;13.32;;;5.22;;
9370;SDS011;4725;48.384;8.984;2023-06-22T10:08:34;11.95;;;6.03;;
9370;SDS011;4725;48.384;8.984;2023-06-22T10:11:02;10.05;;;5.53;;
9370;SDS011;4725;48.384;8.984;2023-06-22T10:13:29;13.07;;;5.60;;
9370;SDS011;4725;48.384;8.984;2023-06-22T10:15:56;9.85;;;5.85;;
9370;SDS011;4725;48.384;8.984;2023-06-22T10:18:24;10.02;;;5.70;;
9370;SDS011;4725;48.384;8.984;2023-06-22T10:20:51;7.88;;;5.78;;
9370;SDS011;4725;48.384;8.984;2023-06-22T10:23:18;5.88;;;5.00;;
9370;SDS011;4725;48.384;8.984;2023-06-22T10:25:46;9.93;;;5.35;;
9370;SDS011;4725;48.384;8.984;2023-06-22T10:28:13;8.90;;;5.57;;
9370;SDS011;4725;48.384;8.984;2023-06-22T10:30:40;11.52;;;5.35;;
9370;SDS011;4725;48.384;8.984;2023-06-22T10:33:07;11.68;;;5.10;;
9370;SDS011;4725;48.384;8.984;2023-06-22T10:35:36;10.32;;;5.10;;
9370;SDS011;4725;48.384;8.984;2023-06-22T10:38:04;10.27;;;5.07;;
9370;SDS011;4725;48.384;8.984;2023-06-22T10:40:30;14.45;;;5.25;;
9370;SDS011;4725;48.384;8.984;2023-06-22T10:42:58;9.90;;;5.85;;
9370;SDS011;4725;48.384;8.984;2023-06-22T10:45:25;12.13;;;5.38;;
9370;SDS011;4725;48.384;8.984;2023-06-22T10:47:52;9.82;;;5.75;;
9370;SDS011;4725;48.384;8.984;2023-06-22T10:50:19;11.02;;;5.22;;
9370;SDS011;4725;48.384;8.984;2023-06-22T10:52:50;9.07;;;5.00;;
9370;SDS011;4725;48.384;8.984;2023-06-22T10:55:17;13.10;;;6.00;;
9370;SDS011;4725;48.384;8.984;2023-06-22T10:57:44;8.07;;;4.82;;
9370;SDS011;4725;48.384;8.984;2023-06-22T11:00:12;11.77;;;6.20;;
9370;SDS011;4725;48.384;8.984;2023-06-22T11:02:40;12.70;;;5.25;;
9370;SDS011;4725;48.384;8.984;2023-06-22T11:05:07;8.00;;;5.45;;
9370;SDS011;4725;48.384;8.984;2023-06-22T11:07:34;13.00;;;5.28;;
9370;SDS011;4725;48.384;8.984;2023-06-22T11:10:03;8.65;;;5.68;;
9370;SDS011;4725;48.384;8.984;2023-06-22T11:12:30;13.05;;;5.72;;
9370;SDS011;4725;48.384;8.984;2023-06-22T11:14:57;10.70;;;4.95;;
9370;SDS011;4725;48.384;8.984;2023-06-22T11:17:24;9.57;;;5.32;;
9370;SDS011;4725;48.384;8.984;2023-06-22T11:19:50;13.93;;;6.40;;
9370;SDS011;4725;48.384;8.984;2023-06-22T11:22:17;9.00;;;5.50;;
9370;SDS011;4725;48.384;8.984;2023-06-22T11:24:44;13.55;;;5.63;;
9370;SDS011;4725;48.384;8.984;2023-06-22T11:27:12;7.30;;;4.43;;
9370;SDS011;4725;48.384;8.984;2023-06-22T11:29:39;11.63;;;6.07;;
9370;SDS011;4725;48.384;8.984;2023-06-22T11:32:06;14.07;;;5.90;;
9370;SDS011;4725;48.384;8.984;2023-06-22T11:34:33;11.65;;;6.97;;
9370;SDS011;4725;48.384;8.984;2023-06-22T11:37:01;8.48;;;5.60;;
9370;SDS011;4725;48.384;8.984;2023-06-22T11:39:27;11.43;;;6.07;;
9370;SDS011;4725;48.384;8.984;2023-06-22T11:41:54;10.13;;;5.80;;
9370;SDS011;4725;48.384;8.984;2023-06-22T11:44:22;11.63;;;6.00;;
9370;SDS011;4725;48.384;8.984;2023-06-22T11:46:49;8.48;;;4.85;;
9370;SDS011;4725;48.384;8.984;2023-06-22T11:49:16;11.25;;;5.70;;
9370;SDS011;4725;48.384;8.984;2023-06-22T11:51:44;7.03;;;5.15;;
9370;SDS011;4725;48.384;8.984;2023-06-22T11:54:11;11.27;;;5.82;;
9370;SDS011;4725;48.384;8.984;2023-06-22T11:56:38;13.93;;;7.07;;
9370;SDS011;4725;48.384;8.984;2023-06-22T11:59:04;10.45;;;5.28;;
9370;SDS011;4725;48.384;8.984;2023-06-22T12:01:33;12.07;;;5.80;;
9370;SDS011;4725;48.384;8.984;2023-06-22T12:04:00;11.43;;;6.13;;
9370;SDS011;4725;48.384;8.984;2023-06-22T12:06:29;15.10;;;5.68;;
9370;SDS011;4725;48.384;8.984;2023-06-22T12:08:56;11.23;;;5.57;;
9370;SDS011;4725;48.384;8.984;2023-06-22T12:11:23;15.88;;;5.85;;
9370;SDS011;4725;48.384;8.984;2023-06-22T12:13:50;13.25;;;5.07;;
9370;SDS011;4725;48.384;8.984;2023-06-22T12:16:17;17.45;;;6.07;;
9370;SDS011;4725;48.384;8.984;2023-06-22T12:18:46;10.45;;;5.47;;
9370;SDS011;4725;48.384;8.984;2023-06-22T12:21:13;13.95;;;5.95;;
9370;SDS011;4725;48.384;8.984;2023-06-22T12:23:40;10.00;;;5.95;;
9370;SDS011;4725;48.384;8.984;2023-06-22T12:26:07;18.15;;;5.90;;
9370;SDS011;4725;48.384;8.984;2023-06-22T12:28:34;7.60;;;5.00;;
9370;SDS011;4725;48.384;8.984;2023-06-22T12:31:00;11.40;;;5.20;;
9370;SDS011;4725;48.384;8.984;2023-06-22T12:33:27;10.75;;;5.35;;
9370;SDS011;4725;48.384;8.984;2023-06-22T12:35:56;11.98;;;5.50;;
9370;SDS011;4725;48.384;8.984;2023-06-22T12:38:23;8.77;;;5.45;;
9370;SDS011;4725;48.384;8.984;2023-06-22T12:40:51;9.35;;;5.75;;
9370;SDS011;4725;48.384;8.984;2023-06-22T12:43:17;10.75;;;5.75;;
9370;SDS011;4725;48.384;8.984;2023-06-22T12:45:44;13.57;;;5.68;;
9370;SDS011;4725;48.384;8.984;2023-06-22T12:48:11;7.57;;;5.25;;
9370;SDS011;4725;48.384;8.984;2023-06-22T12:50:38;16.08;;;6.40;;
9370;SDS011;4725;48.384;8.984;2023-06-22T12:53:07;11.93;;;5.82;;
9370;SDS011;4725;48.384;8.984;2023-06-22T12:55:33;10.32;;;5.45;;
9370;SDS011;4725;48.384;8.984;2023-06-22T12:58:00;11.63;;;5.43;;
9370;SDS011;4725;48.384;8.984;2023-06-22T13:00:27;13.10;;;6.00;;
9370;SDS011;4725;48.384;8.984;2023-06-22T13:02:54;8.43;;;5.25;;
9370;SDS011;4725;48.384;8.984;2023-06-22T13:05:21;9.82;;;5.50;;
9370;SDS011;4725;48.384;8.984;2023-06-22T13:07:48;16.58;;;5.72;;
9370;SDS011;4725;48.384;8.984;2023-06-22T13:10:16;10.40;;;5.85;;
9370;SDS011;4725;48.384;8.984;2023-06-22T13:12:43;8.88;;;5.00;;
9370;SDS011;4725;48.384;8.984;2023-06-22T13:15:10;17.50;;;5.70;;
9370;SDS011;4725;48.384;8.984;2023-06-22T13:17:37;11.90;;;6.22;;
9370;SDS011;4725;48.384;8.984;2023-06-22T13:20:04;10.73;;;5.43;;
9370;SDS011;4725;48.384;8.984;2023-06-22T13:22:32;17.27;;;6.85;;
9370;SDS011;4725;48.384;8.984;2023-06-22T13:25:05;13.95;;;6.03;;
9370;SDS011;4725;48.384;8.984;2023-06-22T13:27:34;11.57;;;5.85;;
9370;SDS011;4725;48.384;8.984;2023-06-22T13:30:01;18.25;;;6.40;;
9370;SDS011;4725;48.384;8.984;2023-06-22T13:32:28;10.88;;;5.68;;
9370;SDS011;4725;48.384;8.984;2023-06-22T13:34:55;14.32;;;6.03;;
9370;SDS011;4725;48.384;8.984;2023-06-22T13:37:22;8.98;;;5.30;;
9370;SDS011;4725;48.384;8.984;2023-06-22T13:39:49;12.40;;;5.47;;
9370;SDS011;4725;48.384;8.984;2023-06-22T13:42:16;11.85;;;5.28;;
9370;SDS011;4725;48.384;8.984;2023-06-22T13:44:44;13.88;;;6.05;;
9370;SDS011;4725;48.384;8.984;2023-06-22T13:47:11;11.30;;;5.65;;
9370;SDS011;4725;48.384;8.984;2023-06-22T13:49:38;13.77;;;6.13;;
9370;SDS011;4725;48.384;8.984;2023-06-22T13:52:05;8.02;;;6.07;;
9370;SDS011;4725;48.384;8.984;2023-06-22T13:54:35;11.95;;;6.00;;
9370;SDS011;4725;48.384;8.984;2023-06-22T13:57:02;13.73;;;6.47;;
9370;SDS011;4725;48.384;8.984;2023-06-22T13:59:29;9.68;;;5.47;;
9370;SDS011;4725;48.384;8.984;2023-06-22T14:01:58;18.23;;;5.60;;
9370;SDS011;4725;48.384;8.984;2023-06-22T14:04:24;13.65;;;6.32;;
9370;SDS011;4725;48.384;8.984;2023-06-22T14:06:52;11.77;;;6.00;;
9370;SDS011;4725;48.384;8.984;2023-06-22T14:09:19;7.43;;;5.55;;
9370;SDS011;4725;48.384;8.984;2023-06-22T14:11:45;13.45;;;5.93;;
9370;SDS011;4725;48.384;8.984;2023-06-22T14:14:12;10.07;;;5.80;;
9370;SDS011;4725;48.384;8.984;2023-06-22T14:16:39;8.80;;;4.95;;
9370;SDS011;4725;48.384;8.984;2023-06-22T14:19:07;10.63;;;5.88;;
9370;SDS011;4725;48.384;8.984;2023-06-22T14:21:34;15.73;;;6.45;;
9370;SDS011;4725;48.384;8.984;2023-06-22T14:24:01;12.23;;;5.72;;
9370;SDS011;4725;48.384;8.984;2023-06-22T14:26:28;10.73;;;6.18;;
9370;SDS011;4725;48.384;8.984;2023-06-22T14:28:55;9.35;;;5.13;;
9370;SDS011;4725;48.384;8.984;2023-06-22T14:31:22;10.73;;;5.28;;
9370;SDS011;4725;48.384;8.984;2023-06-22T14:33:49;11.75;;;5.57;;
9370;SDS011;4725;48.384;8.984;2023-06-22T14:36:17;11.52;;;5.40;;
9370;SDS011;4725;48.384;8.984;2023-06-22T14:38:44;12.93;;;5.30;;
9370;SDS011;4725;48.384;8.984;2023-06-22T14:41:12;13.65;;;5.72;;
9370;SDS011;4725;48.384;8.984;2023-06-22T14:43:43;13.38;;;5.25;;
9370;SDS011;4725;48.384;8.984;2023-06-22T14:46:11;9.55;;;4.85;;
9370;SDS011;4725;48.384;8.984;2023-06-22T14:48:38;10.25;;;4.82;;
9370;SDS011;4725;48.384;8.984;2023-06-22T14:51:04;8.63;;;4.93;;
9370;SDS011;4725;48.384;8.984;2023-06-22T14:53:33;9.60;;;4.57;;
9370;SDS011;4725;48.384;8.984;2023-06-22T14:56:00;9.40;;;4.55;;
9370;SDS011;4725;48.384;8.984;2023-06-22T14:58:27;19.83;;;5.40;;
9370;SDS011;4725;48.384;8.984;2023-06-22T15:00:55;9.10;;;4.00;;
9370;SDS011;4725;48.384;8.984;2023-06-22T15:03:21;16.95;;;5.55;;
9370;SDS011;4725;48.384;8.984;2023-06-22T15:05:52;13.05;;;4.65;;